Time;durP1;ratioP1;P1;durP2;ratioP2;P2;SDS_P1;SDS_P2;PMS_P1;PMS_P2;Temp;Humidity;BMP_temperature;BMP_pressure;BME280_temperature;BME280_humidity;BME280_pressure;Samples;Min_cycle;Max_cycle;Signal;HPM_P1;HPM_P2
2022/08/04 00:00:10;;;;;;;8.20;1.80;;;;;;;22.28;85.99;96403.50;4964897;28;20276;-73
2022/08/04 00:03:13;;;;;;;4.10;1.77;;;;;;;22.26;84.63;96397.59;4963338;28;20036;-73
2022/08/04 00:05:48;;;;;;;6.38;1.80;;;;;;;22.33;84.48;96405.22;4965207;28;20153;-73
2022/08/04 00:08:40;;;;;;;3.22;1.63;;;;;;;22.40;83.39;96397.34;4963612;28;20214;-74
2022/08/04 00:11:08;;;;;;;3.83;1.65;;;;;;;22.48;82.23;96404.72;4969435;28;20050;-74
2022/08/04 00:13:38;;;;;;;3.70;1.70;;;;;;;22.50;81.26;96397.81;4967580;28;20397;-74
2022/08/04 00:16:09;;;;;;;3.43;1.60;;;;;;;22.50;80.87;96395.09;4966895;28;20038;-74
2022/08/04 00:18:38;;;;;;;;;;;;;;;22.66;82.83;96395.34;4966423;28;20665;-73
2022/08/04 00:21:05;;;;;;;3.03;1.60;;;;;;;22.73;79.02;96395.66;4969042;28;19922;-73
2022/08/04 00:23:35;;;;;;;3.00;1.58;;;;;;;22.76;80.14;96399.63;4965689;28;20688;-73
2022/08/04 00:26:02;;;;;;;3.10;1.55;;;;;;;22.68;79.36;96397.75;4970185;28;20416;-74
2022/08/04 00:28:28;;;;;;;6.05;1.48;;;;;;;22.70;83.76;96395.47;4965750;28;20390;-73
2022/08/04 00:30:57;;;;;;;7.32;1.80;;;;;;;22.75;81.06;96398.03;4967408;28;20046;-74
2022/08/04 00:33:23;;;;;;;3.08;1.67;;;;;;;22.61;80.88;96405.63;4965409;28;20042;-73
2022/08/04 00:35:49;;;;;;;3.53;1.73;;;;;;;22.42;81.75;96398.66;4967023;28;20034;-73
2022/08/04 00:38:18;;;;;;;3.40;1.67;;;;;;;22.19;82.82;96397.28;4963837;28;20110;-73
2022/08/04 00:41:05;;;;;;;3.47;1.70;;;;;;;22.06;84.09;96406.41;4966543;28;20081;-73
2022/08/04 00:43:38;;;;;;;3.13;1.70;;;;;;;21.90;85.02;96396.00;4966770;28;20030;-73
2022/08/04 00:46:21;;;;;;;6.15;1.80;;;;;;;21.99;94.86;96396.00;4967177;28;20123;-73
2022/08/04 00:49:07;;;;;;;2.70;1.60;;;;;;;22.12;86.42;96391.53;4966239;28;20030;-74
2022/08/04 00:52:06;;;;;;;5.20;1.88;;;;;;;22.35;84.00;96395.63;4968114;28;20654;-73
2022/08/04 00:54:53;;;;;;;4.35;2.00;;;;;;;22.45;84.27;96397.19;4966944;28;20335;-73
2022/08/04 00:57:30;;;;;;;3.72;1.95;;;;;;;22.43;83.49;96391.28;4967356;28;20502;-73
2022/08/04 01:00:12;;;;;;;8.65;1.90;;;;;;;22.44;83.51;96388.22;4967577;28;20043;-73
2022/08/04 01:03:28;;;;;;;5.10;1.83;;;;;;;22.33;84.31;96386.94;4965848;28;20441;-73
2022/08/04 01:06:31;;;;;;;5.53;2.00;;;;;;;22.23;84.08;96385.38;4967256;28;20081;-73
2022/08/04 01:09:25;;;;;;;4.47;2.00;;;;;;;22.22;86.56;96389.25;4963739;28;20093;-74
2022/08/04 01:12:06;;;;;;;5.78;2.00;;;;;;;22.24;84.01;96383.47;4962989;28;20042;-73
2022/08/04 01:15:00;;;;;;;2.97;1.80;;;;;;;22.16;83.95;96392.44;4967165;28;20037;-73
2022/08/04 01:17:34;;;;;;;4.95;1.95;;;;;;;22.04;85.30;96390.38;4965758;28;20081;-73
2022/08/04 01:20:07;;;;;;;4.30;2.00;;;;;;;21.97;85.34;96384.63;4967265;28;20043;-73
2022/08/04 01:22:32;;;;;;;4.38;2.10;;;;;;;21.90;86.13;96393.28;4966523;28;20091;-73
2022/08/04 01:25:16;;;;;;;3.55;1.90;;;;;;;21.83;86.65;96384.78;4967759;28;20090;-73
2022/08/04 01:27:48;;;;;;;5.45;1.90;;;;;;;21.83;86.44;96395.69;4966405;28;20236;-73
2022/08/04 01:30:13;;;;;;;4.55;1.90;;;;;;;21.87;88.33;96385.75;4965953;28;20034;-73
2022/08/04 01:33:03;;;;;;;4.72;2.20;;;;;;;21.98;90.93;96387.03;4963875;28;20253;-73
2022/08/04 01:35:48;;;;;;;3.92;1.77;;;;;;;22.04;87.95;96378.69;4964656;28;20173;-73
2022/08/04 01:38:32;;;;;;;4.30;1.98;;;;;;;22.00;87.57;96383.16;4962114;28;20038;-73
2022/08/04 01:41:09;;;;;;;4.07;2.10;;;;;;;21.95;88.45;96376.78;4966397;28;20039;-73
2022/08/04 01:43:45;;;;;;;4.80;2.00;;;;;;;22.00;91.72;96369.53;4966495;28;20031;-73
2022/08/04 01:46:13;;;;;;;7.22;2.53;;;;;;;22.05;89.17;96369.38;4965528;28;20505;-73
2022/08/04 01:48:43;;;;;;;6.90;2.20;;;;;;;22.08;95.29;96374.19;4963427;28;20207;-73
2022/08/04 01:51:09;;;;;;;3.63;1.73;;;;;;;22.10;88.71;96371.94;4964694;28;20458;-73
2022/08/04 01:53:37;;;;;;;4.13;2.03;;;;;;;22.07;89.58;96369.84;4966949;28;20045;-73
2022/08/04 01:56:06;;;;;;;3.97;1.90;;;;;;;22.07;91.78;96369.84;4964389;28;20061;-74
2022/08/04 01:58:35;;;;;;;3.10;2.00;;;;;;;22.07;92.86;96364.41;4964435;28;20439;-73
2022/08/04 02:01:12;;;;;;;3.47;1.88;;;;;;;22.10;91.83;96367.31;4967633;28;20073;-73
2022/08/04 02:03:40;;;;;;;4.35;2.17;;;;;;;22.07;89.65;96370.66;4964258;28;20507;-73
2022/08/04 02:06:31;;;;;;;3.40;2.10;;;;;;;22.08;94.09;96374.19;4965327;28;20042;-74
2022/08/04 02:09:11;;;;;;;4.43;2.20;;;;;;;22.03;96.23;96363.47;4964846;28;20051;-74
2022/08/04 02:11:40;;;;;;;4.60;2.00;;;;;;;22.02;90.43;96359.13;4965018;28;20039;-74
2022/08/04 02:14:39;;;;;;;5.32;2.10;;;;;;;22.01;93.79;96360.25;4946343;28;20124;-73
2022/08/04 02:17:05;;;;;;;6.38;2.38;;;;;;;22.03;91.37;96366.19;4966808;28;20618;-74
2022/08/04 02:19:58;;;;;;;3.30;1.85;;;;;;;22.01;92.41;96355.59;4965406;28;20062;-74
2022/08/04 02:22:27;;;;;;;5.60;1.90;;;;;;;22.01;92.14;96357.53;4964889;28;20731;-73
2022/08/04 02:25:02;;;;;;;9.60;2.35;;;;;;;22.06;90.77;96351.91;4966072;28;20549;-73
2022/08/04 02:27:31;;;;;;;3.65;2.00;;;;;;;22.07;90.94;96345.34;4966133;28;20129;-73
2022/08/04 02:30:03;;;;;;;3.28;1.95;;;;;;;22.09;nan;96352.06;4967059;28;20254;-73
2022/08/04 02:32:38;;;;;;;3.85;1.98;;;;;;;22.10;90.23;96355.59;4964059;28;20063;-73
2022/08/04 02:35:08;;;;;;;4.47;2.00;;;;;;;22.03;89.97;96356.09;4965482;28;20050;-73
2022/08/04 02:37:36;;;;;;;6.45;2.05;;;;;;;22.07;89.83;96351.59;4963698;28;20113;-73
2022/08/04 02:40:05;;;;;;;4.47;1.98;;;;;;;22.12;92.78;96342.47;4966650;28;20650;-73
2022/08/04 02:42:32;;;;;;;5.47;1.85;;;;;;;22.11;89.36;96341.69;4962058;28;20109;-73
2022/08/04 02:44:59;;;;;;;4.30;2.30;;;;;;;22.03;90.78;96341.69;4969229;28;20038;-73
2022/08/04 02:47:26;;;;;;;5.20;2.17;;;;;;;21.91;90.77;96343.13;4963325;28;20695;-73
2022/08/04 02:49:52;;;;;;;6.68;1.92;;;;;;;21.90;93.10;96338.81;4962988;28;20398;-73
2022/08/04 02:52:19;;;;;;;3.20;1.90;;;;;;;21.90;93.37;96335.28;4967451;28;20109;-73
2022/08/04 02:54:47;;;;;;;4.97;2.15;;;;;;;21.98;89.45;96337.97;4968039;28;20042;-73
2022/08/04 02:57:18;;;;;;;3.67;1.92;;;;;;;22.11;89.45;96335.44;4964516;28;20063;-73
2022/08/04 02:59:44;;;;;;;;;;;;;;;22.16;98.95;96327.84;4965022;28;20502;-73
2022/08/04 03:02:09;;;;;;;3.67;2.10;;;;;;;22.12;93.94;96335.09;4964382;28;20060;-73
2022/08/04 03:04:55;;;;;;;4.22;2.13;;;;;;;22.08;91.51;96328.69;4964188;28;20041;-73
2022/08/04 03:07:39;;;;;;;3.90;2.10;;;;;;;22.05;88.84;96328.53;4963243;28;20035;-73
2022/08/04 03:10:17;;;;;;;5.05;1.70;;;;;;;21.84;90.51;96333.84;4962301;28;20212;-73
2022/08/04 03:13:01;;;;;;;3.75;1.88;;;;;;;21.60;91.86;96327.00;4964509;28;20050;-73
2022/08/04 03:15:33;;;;;;;3.70;2.33;;;;;;;21.44;92.79;96333.25;4962479;28;20504;-75
2022/08/04 03:18:36;;;;;;;7.18;2.00;;;;;;;21.26;93.70;96338.69;4965537;28;20031;-73
2022/08/04 03:21:21;;;;;;;8.18;2.00;;;;;;;21.17;94.23;96331.59;4966860;28;20045;-73
2022/08/04 03:24:13;;;;;;;4.60;2.10;;;;;;;21.08;94.82;96331.59;4963550;28;20043;-73
2022/08/04 03:27:09;;;;;;;2.90;1.90;;;;;;;21.03;94.73;96329.84;4967808;28;20045;-73
2022/08/04 03:29:54;;;;;;;5.47;2.03;;;;;;;20.95;95.13;96338.81;4963345;28;20031;-73
2022/08/04 03:32:34;;;;;;;6.15;2.17;;;;;;;20.94;94.99;96339.13;4962075;28;20069;-73
2022/08/04 03:35:11;;;;;;;4.57;2.20;;;;;;;20.89;95.45;96334.63;4964726;28;20273;-74
2022/08/04 03:38:11;;;;;;;6.70;2.10;;;;;;;20.80;95.97;96342.78;4963245;28;20114;-73
2022/08/04 03:41:14;;;;;;;8.07;2.47;;;;;;;20.75;96.40;96342.91;4964857;28;20107;-74
2022/08/04 03:43:56;;;;;;;4.13;2.30;;;;;;;20.68;96.20;96336.34;4962830;28;20115;-73
2022/08/04 03:46:56;;;;;;;3.72;2.33;;;;;;;20.64;97.11;96330.75;4966377;28;20433;-73
2022/08/04 03:49:39;;;;;;;5.18;2.30;;;;;;;20.64;96.66;96336.19;4966516;28;20379;-73
2022/08/04 03:55:29;;;;;;;5.68;2.20;;;;;;;20.67;96.33;96340.19;4967561;28;20045;-73
2022/08/04 03:58:38;;;;;;;4.68;2.30;;;;;;;20.66;96.10;96333.94;4967885;28;20136;-74
2022/08/04 04:01:31;;;;;;;3.95;2.13;;;;;;;20.65;96.25;96334.25;4965286;28;20054;-74
2022/08/04 04:04:13;;;;;;;10.93;2.55;;;;;;;20.59;96.44;96339.84;4966639;28;20035;-74
2022/08/04 04:07:09;;;;;;;5.90;2.10;;;;;;;20.63;95.69;96339.22;4969541;28;20066;-73
2022/08/04 04:10:00;;;;;;;3.33;1.90;;;;;;;20.68;95.86;96333.63;4967472;28;20105;-74
2022/08/04 04:12:28;;;;;;;3.40;2.10;;;;;;;20.72;95.13;96338.13;4964342;28;20135;-74
2022/08/04 04:15:27;;;;;;;5.47;2.17;;;;;;;20.79;94.91;96338.47;4967526;28;20767;-74
2022/08/04 04:18:15;;;;;;;3.50;2.20;;;;;;;20.85;94.59;96328.22;4967786;28;20128;-74
2022/08/04 04:21:07;;;;;;;10.32;2.10;;;;;;;20.92;93.72;96335.91;4970171;28;20062;-73
2022/08/04 04:24:00;;;;;;;5.82;2.17;;;;;;;21.00;93.49;96332.41;4951471;28;20368;-73
2022/08/04 04:27:12;;;;;;;4.05;2.40;;;;;;;21.07;93.31;96336.25;4967256;28;20478;-73
2022/08/04 04:29:37;;;;;;;3.55;2.33;;;;;;;21.12;92.86;96327.94;4951843;28;20105;-73
2022/08/04 04:32:24;;;;;;;3.10;2.00;;;;;;;21.19;92.63;96329.38;4965995;28;20050;-73
2022/08/04 04:35:15;;;;;;;5.00;2.22;;;;;;;21.29;92.35;96335.34;4951282;28;20039;-74
2022/08/04 04:37:52;;;;;;;3.80;2.05;;;;;;;21.35;91.87;96328.63;4966079;28;20081;-74
2022/08/04 04:40:39;;;;;;;5.20;2.20;;;;;;;21.44;91.15;96331.34;4965318;28;20440;-74
2022/08/04 04:43:32;;;;;;;3.17;2.15;;;;;;;21.48;90.86;96329.59;4967587;28;20034;-73
2022/08/04 04:46:20;;;;;;;3.95;2.05;;;;;;;21.56;90.40;96322.53;4967740;28;20477;-73
2022/08/04 04:49:08;;;;;;;5.03;1.98;;;;;;;21.62;90.38;96329.38;4928936;28;20043;-74
2022/08/04 04:51:51;;;;;;;5.47;2.10;;;;;;;21.66;90.33;96331.16;4967320;28;20069;-73
2022/08/04 04:54:38;;;;;;;3.38;2.00;;;;;;;21.70;90.33;96326.66;4966209;28;20038;-74
2022/08/04 04:57:06;;;;;;;4.25;2.08;;;;;;;21.78;89.75;96340.59;4965174;28;20088;-73
2022/08/04 04:59:35;;;;;;;3.55;2.05;;;;;;;21.88;88.64;96332.09;4967779;28;20132;-74
2022/08/04 05:02:21;;;;;;;4.45;2.20;;;;;;;21.92;88.92;96328.38;4965462;28;20047;-73
2022/08/04 05:04:59;;;;;;;7.68;2.05;;;;;;;21.98;88.57;96334.47;4967155;28;20039;-74
2022/08/04 05:08:02;;;;;;;4.07;2.08;;;;;;;22.05;88.64;96331.25;4965680;28;20038;-73
2022/08/04 05:10:45;;;;;;;4.72;2.00;;;;;;;22.09;89.33;96338.47;4964193;28;20055;-74
2022/08/04 05:13:35;;;;;;;5.25;2.15;;;;;;;22.12;88.83;96340.56;4966034;28;20080;-73
2022/08/04 05:16:09;;;;;;;3.65;2.00;;;;;;;22.14;89.27;96338.28;4968362;28;20090;-74
2022/08/04 05:18:39;;;;;;;5.90;2.10;;;;;;;22.22;89.04;96331.22;4964047;28;20469;-74
2022/08/04 05:21:36;;;;;;;5.25;2.25;;;;;;;22.31;88.68;96337.44;4968239;28;20050;-74
2022/08/04 05:24:06;;;;;;;3.92;2.22;;;;;;;22.44;88.16;96344.59;4968391;28;20455;-74
2022/08/04 05:26:37;;;;;;;3.78;2.15;;;;;;;22.52;87.26;96346.47;4966957;28;20088;-74
2022/08/04 05:29:12;;;;;;;3.60;1.83;;;;;;;22.60;87.21;96341.31;4967211;28;20132;-74
2022/08/04 05:31:42;;;;;;;4.32;2.10;;;;;;;22.68;87.12;96341.28;4967398;28;20568;-74
2022/08/04 05:34:19;;;;;;;6.03;2.03;;;;;;;22.74;86.79;96342.69;4966191;28;20038;-74
2022/08/04 05:36:52;;;;;;;5.40;2.13;;;;;;;22.85;86.87;96337.69;4968258;28;20034;-74
2022/08/04 05:39:26;;;;;;;5.10;2.65;;;;;;;22.94;87.02;96335.69;4968710;28;20520;-74
2022/08/04 05:41:53;;;;;;;3.95;2.13;;;;;;;23.06;86.36;96343.19;4967268;28;20062;-74
2022/08/04 05:44:22;;;;;;;7.05;2.10;;;;;;;23.15;86.36;96340.38;4966895;28;20055;-73
2022/08/04 05:46:51;;;;;;;6.75;2.45;;;;;;;23.24;86.00;96338.38;4968520;28;20117;-73
2022/08/04 05:49:18;;;;;;;4.85;2.20;;;;;;;23.27;85.39;96344.00;4965098;28;20433;-74
2022/08/04 05:51:45;;;;;;;7.78;2.55;;;;;;;23.29;84.83;96346.38;4965968;28;20532;-74
2022/08/04 05:54:13;;;;;;;4.20;2.50;;;;;;;23.32;85.39;96337.53;4966366;28;20409;-74
2022/08/04 05:56:39;;;;;;;3.53;2.00;;;;;;;23.36;86.84;96341.19;4968404;28;20030;-74
2022/08/04 05:59:05;;;;;;;3.58;2.30;;;;;;;23.41;85.55;96340.19;4962906;28;20036;-74
2022/08/04 06:01:33;;;;;;;6.65;2.20;;;;;;;23.43;89.24;96340.66;4964885;28;20042;-74
2022/08/04 06:04:01;;;;;;;7.00;2.40;;;;;;;23.43;87.15;96340.66;4965584;28;20042;-74
2022/08/04 06:06:29;;;;;;;5.47;2.33;;;;;;;23.46;86.18;96332.59;4963636;28;20038;-74
2022/08/04 06:08:55;;;;;;;4.57;2.30;;;;;;;23.54;85.68;96348.09;4947555;28;20891;-74
2022/08/04 06:11:22;;;;;;;5.65;2.38;;;;;;;23.61;88.06;96344.88;4965348;28;20504;-74
2022/08/04 06:13:56;;;;;;;4.60;2.15;;;;;;;23.68;87.70;96344.31;4966677;28;20125;-74
2022/08/04 06:16:24;;;;;;;4.47;1.83;;;;;;;23.79;85.23;96338.09;4965291;28;20464;-74
2022/08/04 06:18:52;;;;;;;4.38;2.20;;;;;;;23.92;85.15;96336.22;4966285;28;20023;-74
2022/08/04 06:21:23;;;;;;;4.80;2.40;;;;;;;24.01;85.12;96342.38;4965713;28;20043;-74
2022/08/04 06:23:51;;;;;;;7.97;2.22;;;;;;;24.08;84.38;96339.91;4966926;28;20510;-74
2022/08/04 06:26:18;;;;;;;3.50;2.40;;;;;;;24.13;85.73;96345.16;4965517;28;20049;-74
2022/08/04 06:28:49;;;;;;;4.28;2.40;;;;;;;24.19;84.46;96343.78;4965392;28;20477;-74
2022/08/04 06:31:41;;;;;;;4.90;2.17;;;;;;;24.28;84.16;96345.63;4964816;28;20153;-74
2022/08/04 06:34:07;;;;;;;6.97;2.00;;;;;;;24.34;84.20;96341.56;4965700;28;20494;-74
2022/08/04 06:36:36;;;;;;;4.35;2.70;;;;;;;24.40;84.48;96345.69;4964666;28;20027;-74
2022/08/04 06:39:03;;;;;;;4.68;2.22;;;;;;;24.50;85.21;96345.22;4964855;28;20033;-74
2022/08/04 06:41:29;;;;;;;4.72;2.17;;;;;;;24.60;86.08;96346.72;4963044;28;20292;-74
2022/08/04 06:43:59;;;;;;;3.50;2.15;;;;;;;24.66;84.26;96340.66;4966216;28;20038;-74
2022/08/04 06:46:26;;;;;;;6.50;2.67;;;;;;;24.73;84.22;96342.84;4964865;28;20693;-74
2022/08/04 06:48:53;;;;;;;6.15;2.30;;;;;;;24.78;84.27;96339.88;4965445;28;20081;-74
2022/08/04 06:51:20;;;;;;;5.85;2.40;;;;;;;24.89;83.69;96343.75;4964820;28;20038;-74
2022/08/04 06:53:47;;;;;;;4.38;2.22;;;;;;;25.07;84.46;96344.34;4963326;28;20037;-74
2022/08/04 06:56:15;;;;;;;6.72;2.50;;;;;;;25.16;84.97;96346.94;4966144;28;20054;-74
2022/08/04 06:58:42;;;;;;;5.07;2.40;;;;;;;25.21;82.82;96349.44;4963949;28;20109;-74
2022/08/04 07:01:09;;;;;;;6.15;2.13;;;;;;;25.30;84.62;96352.84;4966960;28;20059;-74
2022/08/04 07:03:35;;;;;;;7.03;2.13;;;;;;;25.34;84.28;96347.47;4963180;28;20045;-73
2022/08/04 07:06:01;;;;;;;5.93;2.25;;;;;;;25.46;81.46;96340.03;4965495;28;20039;-73
2022/08/04 07:08:28;;;;;;;3.88;2.25;;;;;;;25.56;81.31;96347.75;4964213;28;20046;-73
2022/08/04 07:10:56;;;;;;;3.33;2.08;;;;;;;25.67;81.59;96350.00;4967170;28;20128;-73
2022/08/04 07:13:22;;;;;;;4.43;1.80;;;;;;;25.72;80.90;96341.56;4963222;28;20110;-73
2022/08/04 07:15:48;;;;;;;5.13;2.30;;;;;;;25.75;80.78;96344.38;4963773;28;20041;-73
2022/08/04 07:18:15;;;;;;;6.20;2.30;;;;;;;25.80;79.21;96348.84;4936524;28;20053;-73
2022/08/04 07:20:45;;;;;;;6.20;2.10;;;;;;;25.71;76.05;96348.97;4970411;28;20622;-73
2022/08/04 07:23:21;;;;;;;7.88;2.25;;;;;;;25.68;77.56;96348.84;4966765;28;20042;-73
2022/08/04 07:25:56;;;;;;;5.57;2.28;;;;;;;25.72;78.06;96353.31;4970326;28;20079;-73
2022/08/04 07:28:24;;;;;;;7.18;2.25;;;;;;;25.78;76.87;96349.19;4946687;28;20035;-73
2022/08/04 07:30:52;;;;;;;7.15;2.20;;;;;;;25.77;76.87;96353.06;4950767;28;20106;-73
2022/08/04 07:33:18;;;;;;;6.60;2.17;;;;;;;25.75;78.58;96349.88;4966896;28;20453;-73
2022/08/04 07:35:52;;;;;;;3.78;2.40;;;;;;;25.81;79.19;96348.47;4971160;28;20579;-73
2022/08/04 07:38:17;;;;;;;3.80;1.92;;;;;;;25.88;78.28;96349.81;4951155;28;20122;-73
2022/08/04 07:40:43;;;;;;;5.40;2.20;;;;;;;25.90;77.28;96356.53;4972769;28;20158;-73
2022/08/04 07:43:09;;;;;;;5.45;1.92;;;;;;;25.94;77.96;96359.41;4966701;28;20100;-73
2022/08/04 07:45:36;;;;;;;5.50;2.80;;;;;;;26.10;76.23;96346.53;4969250;28;20656;-73
2022/08/04 07:48:05;;;;;;;12.20;2.47;;;;;;;26.33;75.42;96355.75;4968767;28;20035;-73
2022/08/04 07:50:33;;;;;;;3.50;1.92;;;;;;;26.51;75.47;96356.22;4950559;28;20031;-73
2022/08/04 07:52:59;;;;;;;4.00;2.10;;;;;;;26.59;75.67;96352.50;4968802;28;20069;-73
2022/08/04 07:55:25;;;;;;;7.72;2.15;;;;;;;26.64;73.35;96355.00;4966957;28;20033;-73
2022/08/04 07:57:50;;;;;;;8.02;2.40;;;;;;;26.75;74.93;96357.19;4949955;28;20034;-73
2022/08/04 08:00:16;;;;;;;3.58;2.08;;;;;;;26.79;77.18;96355.34;4966775;28;20084;-74
2022/08/04 08:02:44;;;;;;;4.90;2.03;;;;;;;26.83;69.35;96351.50;4969666;28;20046;-73
2022/08/04 08:05:12;;;;;;;4.88;2.50;;;;;;;26.91;71.25;96356.00;4966715;28;20058;-73
2022/08/04 08:07:38;;;;;;;4.60;2.08;;;;;;;26.98;68.28;96355.38;4967541;28;20492;-73
2022/08/04 08:10:04;;;;;;;4.72;2.00;;;;;;;26.99;68.01;96354.22;4950150;28;20046;-73
2022/08/04 08:12:32;;;;;;;4.70;2.15;;;;;;;27.04;71.34;96354.00;4949055;28;20118;-73
2022/08/04 08:14:58;;;;;;;3.08;1.98;;;;;;;27.05;73.01;96346.56;4970086;28;20502;-73
2022/08/04 08:17:23;;;;;;;3.33;1.70;;;;;;;27.15;65.90;96348.75;4949424;28;20026;-73
2022/08/04 08:19:50;;;;;;;3.55;1.95;;;;;;;27.25;74.48;96352.91;4968363;28;20517;-73
2022/08/04 08:22:15;;;;;;;6.47;2.13;;;;;;;27.23;70.28;96350.50;4964248;28;20042;-73
2022/08/04 08:24:41;;;;;;;2.72;1.83;;;;;;;27.29;67.82;96345.53;4952224;28;20038;-73
2022/08/04 08:27:06;;;;;;;4.55;2.17;;;;;;;27.31;71.85;96352.22;4968384;28;20035;-73
2022/08/04 08:29:33;;;;;;;5.85;2.08;;;;;;;27.38;71.81;96349.66;4966475;28;20034;-73
2022/08/04 08:31:59;;;;;;;4.88;2.08;;;;;;;27.45;72.85;96344.31;4968041;28;20038;-73
2022/08/04 08:34:27;;;;;;;4.00;1.98;;;;;;;27.47;68.84;96350.25;4966940;28;20335;-73
2022/08/04 08:37:01;;;;;;;4.00;1.98;;;;;;;27.48;67.49;96348.31;4969941;28;20038;-73
2022/08/04 08:39:38;;;;;;;4.07;1.88;;;;;;;27.52;65.23;96351.91;4969297;28;20065;-73
2022/08/04 08:42:25;;;;;;;5.53;2.10;;;;;;;27.61;73.81;96347.00;4967363;28;20078;-73
2022/08/04 08:45:04;;;;;;;4.82;2.10;;;;;;;27.38;70.77;96352.41;4970917;28;20030;-73
2022/08/04 08:48:00;;;;;;;5.45;2.20;;;;;;;27.71;72.62;96345.66;4968134;28;20038;-73
2022/08/04 08:51:15;;;;;;;7.03;2.30;;;;;;;27.78;68.20;96348.53;4967951;28;20309;-73
2022/08/04 08:53:56;;;;;;;4.82;2.00;;;;;;;27.98;62.28;96357.56;4947526;28;20042;-73
2022/08/04 08:56:51;;;;;;;5.47;1.83;;;;;;;27.84;60.68;96358.09;4966736;28;20141;-73
2022/08/04 08:59:16;;;;;;;4.90;1.90;;;;;;;27.91;67.60;96360.97;4965945;28;20039;-73
2022/08/04 09:02:11;;;;;;;5.38;1.77;;;;;;;27.91;66.17;96354.69;4967352;28;20545;-73
2022/08/04 09:04:36;;;;;;;3.25;1.80;;;;;;;27.70;65.82;96352.28;4967526;28;20039;-73
2022/08/04 09:07:23;;;;;;;4.82;1.90;;;;;;;27.82;70.45;96354.13;4965709;28;20039;-73
2022/08/04 09:09:58;;;;;;;4.03;2.00;;;;;;;27.97;64.41;96350.50;4965061;28;20051;-73
2022/08/04 09:12:42;;;;;;;6.60;1.75;;;;;;;28.26;63.23;96346.31;4963815;28;20137;-73
2022/08/04 09:15:14;;;;;;;4.75;1.60;;;;;;;28.34;67.24;96348.06;4965320;28;20045;-73
2022/08/04 09:17:53;;;;;;;3.65;1.90;;;;;;;28.37;59.17;96344.56;4966641;28;20031;-73
2022/08/04 09:20:43;;;;;;;8.73;2.50;;;;;;;28.14;64.92;96351.97;4968073;28;20042;-73
2022/08/04 09:23:19;;;;;;;4.82;1.75;;;;;;;28.08;58.37;96343.22;4963347;28;20398;-73
2022/08/04 09:26:07;;;;;;;7.97;1.80;;;;;;;28.28;58.00;96350.28;4969046;28;20070;-73
2022/08/04 09:29:07;;;;;;;4.63;1.77;;;;;;;28.18;68.46;96350.09;4965608;28;20209;-73
2022/08/04 09:32:03;;;;;;;3.55;1.65;;;;;;;28.24;54.02;96351.38;4966698;28;20049;-73
2022/08/04 09:35:09;;;;;;;5.40;2.08;;;;;;;28.62;55.27;96346.94;4966858;28;20449;-73
2022/08/04 09:37:44;;;;;;;7.60;1.77;;;;;;;28.79;58.21;96357.44;4947974;28;20045;-73
2022/08/04 09:40:18;;;;;;;4.32;1.48;;;;;;;28.93;47.04;96346.69;4967411;28;20043;-73
2022/08/04 09:43:03;;;;;;;4.50;1.70;;;;;;;29.06;49.16;96355.56;4966456;28;20030;-73
2022/08/04 09:45:55;;;;;;;5.10;1.77;;;;;;;29.01;45.62;96344.84;4965379;28;20568;-73
2022/08/04 09:48:33;;;;;;;2.97;1.38;;;;;;;29.14;44.48;96343.47;4963568;28;20146;-73
2022/08/04 09:50:58;;;;;;;3.22;1.38;;;;;;;29.27;44.50;96344.84;4968257;28;20046;-73
2022/08/04 09:53:52;;;;;;;6.25;1.48;;;;;;;29.25;45.67;96343.63;4948272;28;20787;-72
2022/08/04 09:56:33;;;;;;;2.97;1.30;;;;;;;29.44;39.54;96350.97;4965076;28;20034;-73
2022/08/04 09:59:25;;;;;;;3.22;1.38;;;;;;;29.50;37.68;96349.53;4964614;28;20038;-73
2022/08/04 10:01:57;;;;;;;3.15;1.35;;;;;;;29.61;38.34;96340.22;4968058;28;20516;-73
2022/08/04 10:04:26;;;;;;;2.90;1.20;;;;;;;29.68;41.14;96347.78;4965189;28;20112;-73
2022/08/04 10:07:10;;;;;;;4.03;1.40;;;;;;;29.67;40.96;96337.91;4948449;28;20030;-73
2022/08/04 10:09:59;;;;;;;2.92;1.50;;;;;;;29.80;42.00;96346.72;4965007;28;20054;-73
2022/08/04 10:12:46;;;;;;;3.25;1.60;;;;;;;29.71;40.30;96338.75;4963841;28;20340;-73
2022/08/04 10:15:44;;;;;;;2.85;1.58;;;;;;;29.66;43.23;96339.88;4963598;28;20367;-73
2022/08/04 10:18:45;;;;;;;6.65;1.75;;;;;;;30.14;40.24;96340.06;4962946;28;20031;-73
2022/08/04 10:21:23;;;;;;;4.22;1.58;;;;;;;30.27;40.37;96314.94;4951972;28;20452;-73
2022/08/04 10:24:00;;;;;;;4.13;1.40;;;;;;;30.70;37.14;96329.94;4963988;28;20042;-73
2022/08/04 10:26:44;;;;;;;3.03;1.45;;;;;;;30.63;42.21;96325.13;4966318;28;20309;-73
2022/08/04 10:29:26;;;;;;;5.07;1.60;;;;;;;30.23;42.58;96335.03;4964179;28;20273;-73
2022/08/04 10:32:27;;;;;;;3.63;1.50;;;;;;;30.61;38.62;96323.94;4618787;28;10000629;-73
2022/08/04 10:35:06;;;;;;;4.00;1.38;;;;;;;30.76;39.29;96334.75;4959546;28;20137;-73
2022/08/04 10:37:46;;;;;;;4.82;1.50;;;;;;;30.96;35.87;96326.19;4963264;28;20474;-73
2022/08/04 10:40:35;;;;;;;5.40;1.70;;;;;;;31.16;36.26;96333.03;4961837;28;20061;-73
2022/08/04 10:43:04;;;;;;;4.15;1.80;;;;;;;31.57;36.50;96332.91;4960615;28;20196;-73
2022/08/04 10:45:43;;;;;;;3.92;1.85;;;;;;;31.52;35.31;96336.06;4963610;28;20084;-73
2022/08/04 10:48:18;;;;;;;6.82;1.65;;;;;;;31.63;35.70;96339.66;4962866;28;20550;-74
2022/08/04 10:50:58;;;;;;;6.32;1.65;;;;;;;31.86;34.40;96334.63;4963545;28;20518;-73
2022/08/04 10:53:25;;;;;;;2.85;1.55;;;;;;;32.06;37.29;96343.41;4943782;28;20046;-73
2022/08/04 10:56:12;;;;;;;3.72;1.73;;;;;;;32.07;37.54;96330.34;4963758;28;20164;-73
2022/08/04 10:58:54;;;;;;;6.80;1.40;;;;;;;32.52;33.24;96319.75;4961534;28;20584;-73
2022/08/04 11:01:30;;;;;;;2.72;1.40;;;;;;;32.66;32.22;96314.22;4959383;28;20047;-73
2022/08/04 11:04:00;;;;;;;5.30;1.60;;;;;;;33.16;32.47;96319.75;4960469;28;20489;-73
2022/08/04 11:06:27;;;;;;;6.93;1.30;;;;;;;33.61;32.38;96320.03;4964560;28;20313;-73
2022/08/04 11:08:54;;;;;;;2.88;1.30;;;;;;;34.13;30.59;96326.56;4962525;28;20129;-73
2022/08/04 11:11:30;;;;;;;7.57;1.67;;;;;;;35.14;29.92;96310.75;4963007;28;20144;-73
2022/08/04 11:14:04;;;;;;;4.68;1.48;;;;;;;35.95;27.54;96311.81;4964077;28;20405;-73
2022/08/04 11:16:43;;;;;;;3.42;1.25;;;;;;;36.78;25.19;96317.78;4963968;28;20437;-73
2022/08/04 11:19:22;;;;;;;4.33;1.23;;;;;;;37.38;24.57;96320.75;4961825;28;20227;-73
2022/08/04 11:22:02;;;;;;;2.25;1.20;;;;;;;35.79;24.09;96327.53;4963728;28;20371;-73
2022/08/04 11:24:50;;;;;;;3.08;1.48;;;;;;;37.33;26.20;96310.88;4964626;28;20038;-73
2022/08/04 11:30:12;;;;;;;2.85;1.40;;;;;;;41.04;20.43;96312.47;4945139;23;20067;-94
2022/08/04 11:33:31;;;;;;;3.33;1.30;;;;;;;38.52;23.96;96315.56;4932729;28;20047;-93
2022/08/04 11:36:38;;;;;;;4.10;1.30;;;;;;;37.33;23.86;96305.31;4906511;28;20055;-93
2022/08/04 11:40:10;;;;;;;3.50;1.10;;;;;;;41.72;19.06;96321.34;4933985;29;20035;-93
2022/08/04 11:43:01;;;;;;;3.17;1.10;;;;;;;43.61;16.76;96319.38;4940122;28;20046;-91
2022/08/04 11:45:59;;;;;;;2.33;1.17;;;;;;;44.36;16.04;96333.69;4938353;28;20066;-92
2022/08/04 11:48:55;;;;;;;3.70;1.08;;;;;;;44.41;16.62;96329.41;4908535;28;20050;-92
2022/08/04 11:51:43;;;;;;;6.15;1.40;;;;;;;43.66;17.88;96327.19;4936402;28;20725;-93
2022/08/04 11:54:32;;;;;;;5.10;1.13;;;;;;;41.44;17.26;96334.34;4925237;28;20098;-92
2022/08/04 11:57:18;;;;;;;2.17;1.10;;;;;;;44.19;16.49;96324.78;4926798;28;20121;-93
2022/08/04 11:59:47;;;;;;;2.38;1.20;;;;;;;46.17;14.57;96317.25;4942097;28;20035;-92
2022/08/04 12:02:40;;;;;;;3.92;1.45;;;;;;;47.09;13.84;96321.78;4941255;28;20039;-93
2022/08/04 12:05:08;;;;;;;4.93;1.17;;;;;;;48.23;12.96;96326.16;4982643;23;20442;-73
2022/08/04 12:07:39;;;;;;;6.70;1.33;;;;;;;49.71;12.71;96328.09;4977153;28;20034;-74
2022/08/04 12:10:19;;;;;;;12.10;1.90;;;;;;;46.85;13.47;96319.91;4933100;28;20337;-74
2022/08/04 12:13:11;;;;;;;20.30;3.10;;;;;;;45.97;14.53;96325.59;4975004;28;20041;-73
2022/08/04 12:16:11;;;;;;;3.22;1.20;;;;;;;47.70;13.99;96325.38;4951832;28;20049;-74
2022/08/04 12:18:56;;;;;;;8.38;1.30;;;;;;;47.33;14.56;96319.53;4976355;28;20034;-73
2022/08/04 12:21:28;;;;;;;3.17;1.40;;;;;;;48.41;13.19;96330.69;4975438;28;20048;-73
2022/08/04 12:23:59;;;;;;;2.83;1.27;;;;;;;49.43;12.94;96321.59;4971708;28;20520;-73
2022/08/04 12:26:41;;;;;;;2.95;1.63;;;;;;;49.83;12.00;96321.19;4976428;28;20049;-74
2022/08/04 12:29:13;;;;;;;8.38;1.40;;;;;;;49.12;12.97;96320.41;4976913;28;20559;-73